sensor_id;sensor_type;location;lat;lon;timestamp;P1;durP1;ratioP1;P2;durP2;ratioP2
16308;SDS011;8263;48.880;9.276;2023-07-16T00:01:46;105.57;;;98.78;;
16308;SDS011;8263;48.880;9.276;2023-07-16T00:04:13;103.07;;;96.38;;
16308;SDS011;8263;48.880;9.276;2023-07-16T00:06:40;102.45;;;95.85;;
16308;SDS011;8263;48.880;9.276;2023-07-16T00:09:06;105.15;;;98.40;;
16308;SDS011;8263;48.880;9.276;2023-07-16T00:11:33;103.75;;;97.07;;
16308;SDS011;8263;48.880;9.276;2023-07-16T00:13:59;103.88;;;97.20;;
16308;SDS011;8263;48.880;9.276;2023-07-16T00:16:27;103.47;;;96.88;;
16308;SDS011;8263;48.880;9.276;2023-07-16T00:18:55;104.10;;;97.40;;
16308;SDS011;8263;48.880;9.276;2023-07-16T00:21:21;102.70;;;95.88;;
16308;SDS011;8263;48.880;9.276;2023-07-16T00:23:48;104.55;;;97.63;;
16308;SDS011;8263;48.880;9.276;2023-07-16T00:26:14;105.68;;;98.90;;
16308;SDS011;8263;48.880;9.276;2023-07-16T00:28:41;104.82;;;98.13;;
16308;SDS011;8263;48.880;9.276;2023-07-16T00:31:09;106.05;;;99.25;;
16308;SDS011;8263;48.880;9.276;2023-07-16T00:33:36;104.45;;;97.75;;
16308;SDS011;8263;48.880;9.276;2023-07-16T00:36:04;105.93;;;99.13;;
16308;SDS011;8263;48.880;9.276;2023-07-16T00:38:33;107.03;;;100.15;;
16308;SDS011;8263;48.880;9.276;2023-07-16T00:40:59;107.47;;;100.55;;
16308;SDS011;8263;48.880;9.276;2023-07-16T00:43:26;104.70;;;98.00;;
16308;SDS011;8263;48.880;9.276;2023-07-16T00:45:52;104.15;;;97.38;;
16308;SDS011;8263;48.880;9.276;2023-07-16T00:48:19;105.07;;;98.28;;
16308;SDS011;8263;48.880;9.276;2023-07-16T00:50:46;104.13;;;97.43;;
16308;SDS011;8263;48.880;9.276;2023-07-16T00:53:14;103.60;;;96.85;;
16308;SDS011;8263;48.880;9.276;2023-07-16T00:55:40;106.75;;;99.85;;
16308;SDS011;8263;48.880;9.276;2023-07-16T00:58:08;105.38;;;98.57;;
16308;SDS011;8263;48.880;9.276;2023-07-16T01:00:35;104.88;;;98.15;;
16308;SDS011;8263;48.880;9.276;2023-07-16T01:03:03;105.53;;;98.72;;
16308;SDS011;8263;48.880;9.276;2023-07-16T01:05:31;106.50;;;99.60;;
16308;SDS011;8263;48.880;9.276;2023-07-16T01:08:02;104.15;;;97.35;;
16308;SDS011;8263;48.880;9.276;2023-07-16T01:10:32;106.53;;;99.53;;
16308;SDS011;8263;48.880;9.276;2023-07-16T01:12:58;105.75;;;98.95;;
16308;SDS011;8263;48.880;9.276;2023-07-16T01:15:26;108.95;;;101.85;;
16308;SDS011;8263;48.880;9.276;2023-07-16T01:17:52;104.85;;;98.10;;
16308;SDS011;8263;48.880;9.276;2023-07-16T01:20:19;106.75;;;99.88;;
16308;SDS011;8263;48.880;9.276;2023-07-16T01:22:52;105.93;;;99.13;;
16308;SDS011;8263;48.880;9.276;2023-07-16T01:25:29;104.57;;;97.88;;
16308;SDS011;8263;48.880;9.276;2023-07-16T01:28:04;108.72;;;101.72;;
16308;SDS011;8263;48.880;9.276;2023-07-16T01:30:35;106.43;;;99.53;;
16308;SDS011;8263;48.880;9.276;2023-07-16T01:33:05;108.68;;;101.63;;
16308;SDS011;8263;48.880;9.276;2023-07-16T01:35:33;108.78;;;101.78;;
16308;SDS011;8263;48.880;9.276;2023-07-16T01:38:00;109.45;;;102.35;;
16308;SDS011;8263;48.880;9.276;2023-07-16T01:40:27;108.35;;;101.35;;
16308;SDS011;8263;48.880;9.276;2023-07-16T01:42:53;105.63;;;98.82;;
16308;SDS011;8263;48.880;9.276;2023-07-16T01:45:20;109.93;;;102.78;;
16308;SDS011;8263;48.880;9.276;2023-07-16T01:47:50;109.15;;;102.10;;
16308;SDS011;8263;48.880;9.276;2023-07-16T01:50:21;108.00;;;100.90;;
16308;SDS011;8263;48.880;9.276;2023-07-16T01:52:47;108.93;;;101.90;;
16308;SDS011;8263;48.880;9.276;2023-07-16T01:55:14;105.95;;;99.15;;
16308;SDS011;8263;48.880;9.276;2023-07-16T01:57:40;108.63;;;101.63;;
16308;SDS011;8263;48.880;9.276;2023-07-16T02:00:07;107.38;;;100.47;;
16308;SDS011;8263;48.880;9.276;2023-07-16T02:02:34;107.57;;;100.63;;
16308;SDS011;8263;48.880;9.276;2023-07-16T02:05:02;109.20;;;102.10;;
16308;SDS011;8263;48.880;9.276;2023-07-16T02:07:29;108.80;;;101.70;;
16308;SDS011;8263;48.880;9.276;2023-07-16T02:09:55;109.15;;;102.10;;
16308;SDS011;8263;48.880;9.276;2023-07-16T02:12:22;108.70;;;101.68;;
16308;SDS011;8263;48.880;9.276;2023-07-16T02:14:49;107.50;;;100.57;;
16308;SDS011;8263;48.880;9.276;2023-07-16T02:17:15;109.90;;;102.80;;
16308;SDS011;8263;48.880;9.276;2023-07-16T02:19:42;109.80;;;102.68;;
16308;SDS011;8263;48.880;9.276;2023-07-16T02:22:10;105.30;;;98.50;;
16308;SDS011;8263;48.880;9.276;2023-07-16T02:24:36;109.65;;;102.55;;
16308;SDS011;8263;48.880;9.276;2023-07-16T02:27:03;107.32;;;100.40;;
16308;SDS011;8263;48.880;9.276;2023-07-16T02:29:31;109.90;;;102.80;;
16308;SDS011;8263;48.880;9.276;2023-07-16T02:31:57;109.43;;;102.32;;
16308;SDS011;8263;48.880;9.276;2023-07-16T02:34:25;108.65;;;101.63;;
16308;SDS011;8263;48.880;9.276;2023-07-16T02:36:51;109.72;;;102.63;;
16308;SDS011;8263;48.880;9.276;2023-07-16T02:39:19;110.18;;;103.05;;
16308;SDS011;8263;48.880;9.276;2023-07-16T02:41:46;109.35;;;102.25;;
16308;SDS011;8263;48.880;9.276;2023-07-16T02:44:12;108.53;;;101.47;;
16308;SDS011;8263;48.880;9.276;2023-07-16T02:46:39;109.32;;;102.22;;
16308;SDS011;8263;48.880;9.276;2023-07-16T02:49:06;110.57;;;103.38;;
16308;SDS011;8263;48.880;9.276;2023-07-16T02:51:33;109.93;;;102.82;;
16308;SDS011;8263;48.880;9.276;2023-07-16T02:53:59;111.50;;;104.30;;
16308;SDS011;8263;48.880;9.276;2023-07-16T02:56:27;109.57;;;102.47;;
16308;SDS011;8263;48.880;9.276;2023-07-16T02:58:54;109.97;;;102.80;;
16308;SDS011;8263;48.880;9.276;2023-07-16T03:01:22;112.72;;;105.43;;
16308;SDS011;8263;48.880;9.276;2023-07-16T03:03:48;111.05;;;103.65;;
16308;SDS011;8263;48.880;9.276;2023-07-16T03:06:15;108.35;;;101.32;;
16308;SDS011;8263;48.880;9.276;2023-07-16T03:08:41;110.28;;;103.10;;
16308;SDS011;8263;48.880;9.276;2023-07-16T03:11:10;112.18;;;104.88;;
16308;SDS011;8263;48.880;9.276;2023-07-16T03:13:38;111.40;;;103.88;;
16308;SDS011;8263;48.880;9.276;2023-07-16T03:16:04;110.68;;;103.47;;
16308;SDS011;8263;48.880;9.276;2023-07-16T03:18:32;109.97;;;102.78;;
16308;SDS011;8263;48.880;9.276;2023-07-16T03:20:59;111.68;;;104.40;;
16308;SDS011;8263;48.880;9.276;2023-07-16T03:23:25;113.13;;;105.72;;
16308;SDS011;8263;48.880;9.276;2023-07-16T03:25:52;111.18;;;103.90;;
16308;SDS011;8263;48.880;9.276;2023-07-16T03:28:18;111.03;;;103.82;;
16308;SDS011;8263;48.880;9.276;2023-07-16T03:30:47;110.07;;;102.93;;
16308;SDS011;8263;48.880;9.276;2023-07-16T03:33:13;111.07;;;103.85;;
16308;SDS011;8263;48.880;9.276;2023-07-16T03:35:42;110.75;;;103.50;;
16308;SDS011;8263;48.880;9.276;2023-07-16T03:38:11;110.63;;;103.22;;
16308;SDS011;8263;48.880;9.276;2023-07-16T03:40:37;112.50;;;105.18;;
16308;SDS011;8263;48.880;9.276;2023-07-16T03:43:04;110.47;;;103.28;;
16308;SDS011;8263;48.880;9.276;2023-07-16T03:45:30;113.32;;;105.93;;
16308;SDS011;8263;48.880;9.276;2023-07-16T03:47:59;110.45;;;103.25;;
16308;SDS011;8263;48.880;9.276;2023-07-16T03:50:26;112.43;;;105.13;;
16308;SDS011;8263;48.880;9.276;2023-07-16T03:52:52;111.15;;;103.85;;
16308;SDS011;8263;48.880;9.276;2023-07-16T03:55:18;114.70;;;107.20;;
16308;SDS011;8263;48.880;9.276;2023-07-16T03:57:45;113.65;;;106.15;;
16308;SDS011;8263;48.880;9.276;2023-07-16T04:00:12;111.82;;;104.53;;
16308;SDS011;8263;48.880;9.276;2023-07-16T04:02:38;112.43;;;105.10;;
16308;SDS011;8263;48.880;9.276;2023-07-16T04:05:07;114.55;;;106.95;;
16308;SDS011;8263;48.880;9.276;2023-07-16T04:07:34;112.80;;;105.43;;
16308;SDS011;8263;48.880;9.276;2023-07-16T04:10:03;113.75;;;106.28;;
16308;SDS011;8263;48.880;9.276;2023-07-16T04:12:30;114.30;;;106.82;;
16308;SDS011;8263;48.880;9.276;2023-07-16T04:14:57;114.07;;;106.57;;
16308;SDS011;8263;48.880;9.276;2023-07-16T04:17:24;114.60;;;107.00;;
16308;SDS011;8263;48.880;9.276;2023-07-16T04:19:51;115.97;;;108.38;;
16308;SDS011;8263;48.880;9.276;2023-07-16T04:22:19;113.97;;;106.47;;
16308;SDS011;8263;48.880;9.276;2023-07-16T04:24:45;115.00;;;107.50;;
16308;SDS011;8263;48.880;9.276;2023-07-16T04:27:12;115.53;;;107.93;;
16308;SDS011;8263;48.880;9.276;2023-07-16T04:29:38;112.10;;;104.80;;
16308;SDS011;8263;48.880;9.276;2023-07-16T04:32:05;113.57;;;106.18;;
16308;SDS011;8263;48.880;9.276;2023-07-16T04:34:31;114.63;;;107.13;;
16308;SDS011;8263;48.880;9.276;2023-07-16T04:36:58;114.15;;;106.68;;
16308;SDS011;8263;48.880;9.276;2023-07-16T04:39:26;113.03;;;105.63;;
16308;SDS011;8263;48.880;9.276;2023-07-16T04:41:52;116.15;;;108.55;;
16308;SDS011;8263;48.880;9.276;2023-07-16T04:44:19;112.57;;;105.18;;
16308;SDS011;8263;48.880;9.276;2023-07-16T04:46:45;114.30;;;106.80;;
16308;SDS011;8263;48.880;9.276;2023-07-16T04:49:11;116.53;;;108.90;;
16308;SDS011;8263;48.880;9.276;2023-07-16T04:51:38;114.93;;;107.38;;
16308;SDS011;8263;48.880;9.276;2023-07-16T04:54:05;116.25;;;108.65;;
16308;SDS011;8263;48.880;9.276;2023-07-16T04:56:33;114.10;;;106.60;;
16308;SDS011;8263;48.880;9.276;2023-07-16T04:58:59;116.70;;;108.65;;
16308;SDS011;8263;48.880;9.276;2023-07-16T05:01:26;114.28;;;106.80;;
16308;SDS011;8263;48.880;9.276;2023-07-16T05:03:52;115.32;;;107.72;;
16308;SDS011;8263;48.880;9.276;2023-07-16T05:06:19;115.75;;;108.15;;
16308;SDS011;8263;48.880;9.276;2023-07-16T05:08:45;112.85;;;105.43;;
16308;SDS011;8263;48.880;9.276;2023-07-16T05:11:12;115.72;;;108.13;;
16308;SDS011;8263;48.880;9.276;2023-07-16T05:13:40;115.43;;;107.85;;
16308;SDS011;8263;48.880;9.276;2023-07-16T05:16:07;115.93;;;108.32;;
16308;SDS011;8263;48.880;9.276;2023-07-16T05:18:33;115.85;;;108.25;;
16308;SDS011;8263;48.880;9.276;2023-07-16T05:21:00;115.20;;;107.65;;
16308;SDS011;8263;48.880;9.276;2023-07-16T05:23:28;114.65;;;107.10;;
16308;SDS011;8263;48.880;9.276;2023-07-16T05:25:54;114.45;;;106.93;;
16308;SDS011;8263;48.880;9.276;2023-07-16T05:28:21;114.65;;;107.15;;
16308;SDS011;8263;48.880;9.276;2023-07-16T05:30:56;114.57;;;107.07;;
16308;SDS011;8263;48.880;9.276;2023-07-16T05:33:23;117.47;;;109.78;;
16308;SDS011;8263;48.880;9.276;2023-07-16T05:35:49;114.32;;;106.82;;
16308;SDS011;8263;48.880;9.276;2023-07-16T05:38:16;117.50;;;109.78;;
16308;SDS011;8263;48.880;9.276;2023-07-16T05:40:42;114.70;;;107.18;;
16308;SDS011;8263;48.880;9.276;2023-07-16T05:43:09;117.07;;;109.28;;
16308;SDS011;8263;48.880;9.276;2023-07-16T05:45:36;115.45;;;107.85;;
16308;SDS011;8263;48.880;9.276;2023-07-16T05:48:04;115.45;;;107.85;;
16308;SDS011;8263;48.880;9.276;2023-07-16T05:50:31;117.75;;;109.95;;
16308;SDS011;8263;48.880;9.276;2023-07-16T05:52:58;114.00;;;106.50;;
16308;SDS011;8263;48.880;9.276;2023-07-16T05:55:25;116.50;;;108.80;;
16308;SDS011;8263;48.880;9.276;2023-07-16T05:57:52;116.20;;;108.60;;
16308;SDS011;8263;48.880;9.276;2023-07-16T06:00:19;117.10;;;109.38;;
16308;SDS011;8263;48.880;9.276;2023-07-16T06:02:45;118.25;;;110.45;;
16308;SDS011;8263;48.880;9.276;2023-07-16T06:05:13;115.57;;;107.97;;
16308;SDS011;8263;48.880;9.276;2023-07-16T06:07:40;114.70;;;107.18;;
16308;SDS011;8263;48.880;9.276;2023-07-16T06:10:07;117.30;;;109.47;;
16308;SDS011;8263;48.880;9.276;2023-07-16T06:12:34;115.05;;;107.45;;
16308;SDS011;8263;48.880;9.276;2023-07-16T06:15:01;118.00;;;109.93;;
16308;SDS011;8263;48.880;9.276;2023-07-16T06:17:28;117.50;;;109.80;;
16308;SDS011;8263;48.880;9.276;2023-07-16T06:19:54;117.60;;;109.68;;
16308;SDS011;8263;48.880;9.276;2023-07-16T06:22:24;113.68;;;106.25;;
16308;SDS011;8263;48.880;9.276;2023-07-16T06:24:50;116.03;;;108.43;;
16308;SDS011;8263;48.880;9.276;2023-07-16T06:27:17;116.18;;;108.53;;
16308;SDS011;8263;48.880;9.276;2023-07-16T06:29:43;114.97;;;107.40;;
16308;SDS011;8263;48.880;9.276;2023-07-16T06:32:10;113.93;;;106.43;;
16308;SDS011;8263;48.880;9.276;2023-07-16T06:34:36;116.13;;;108.40;;
16308;SDS011;8263;48.880;9.276;2023-07-16T06:37:03;117.47;;;109.68;;
16308;SDS011;8263;48.880;9.276;2023-07-16T06:39:31;115.55;;;107.95;;
16308;SDS011;8263;48.880;9.276;2023-07-16T06:41:57;116.65;;;108.97;;
16308;SDS011;8263;48.880;9.276;2023-07-16T06:44:24;117.22;;;109.53;;
16308;SDS011;8263;48.880;9.276;2023-07-16T06:46:50;117.00;;;109.30;;
16308;SDS011;8263;48.880;9.276;2023-07-16T06:49:17;117.20;;;109.43;;
16308;SDS011;8263;48.880;9.276;2023-07-16T06:51:44;116.15;;;108.47;;
16308;SDS011;8263;48.880;9.276;2023-07-16T06:54:10;116.90;;;109.20;;
16308;SDS011;8263;48.880;9.276;2023-07-16T06:56:38;115.53;;;107.82;;
16308;SDS011;8263;48.880;9.276;2023-07-16T06:59:05;118.00;;;109.70;;
16308;SDS011;8263;48.880;9.276;2023-07-16T07:01:31;114.47;;;106.97;;
16308;SDS011;8263;48.880;9.276;2023-07-16T07:03:58;117.15;;;109.35;;
16308;SDS011;8263;48.880;9.276;2023-07-16T07:06:24;118.40;;;110.60;;
16308;SDS011;8263;48.880;9.276;2023-07-16T07:08:51;117.78;;;110.03;;
16308;SDS011;8263;48.880;9.276;2023-07-16T07:11:17;116.13;;;108.50;;
16308;SDS011;8263;48.880;9.276;2023-07-16T07:13:45;117.07;;;109.38;;
16308;SDS011;8263;48.880;9.276;2023-07-16T07:16:11;117.35;;;109.40;;
16308;SDS011;8263;48.880;9.276;2023-07-16T07:18:38;117.97;;;109.93;;
16308;SDS011;8263;48.880;9.276;2023-07-16T07:21:04;115.03;;;107.47;;
16308;SDS011;8263;48.880;9.276;2023-07-16T07:23:31;115.05;;;107.45;;
16308;SDS011;8263;48.880;9.276;2023-07-16T07:25:57;116.22;;;108.60;;
16308;SDS011;8263;48.880;9.276;2023-07-16T07:28:26;116.75;;;108.78;;
16308;SDS011;8263;48.880;9.276;2023-07-16T07:30:55;116.82;;;109.13;;
16308;SDS011;8263;48.880;9.276;2023-07-16T07:33:21;117.13;;;109.38;;
16308;SDS011;8263;48.880;9.276;2023-07-16T07:35:47;118.35;;;110.18;;
16308;SDS011;8263;48.880;9.276;2023-07-16T07:38:14;117.68;;;109.97;;
16308;SDS011;8263;48.880;9.276;2023-07-16T07:40:42;116.85;;;109.13;;
16308;SDS011;8263;48.880;9.276;2023-07-16T07:43:08;115.65;;;108.05;;
16308;SDS011;8263;48.880;9.276;2023-07-16T07:45:35;116.50;;;108.80;;
16308;SDS011;8263;48.880;9.276;2023-07-16T07:48:04;114.10;;;106.60;;
16308;SDS011;8263;48.880;9.276;2023-07-16T07:50:30;116.63;;;108.80;;
16308;SDS011;8263;48.880;9.276;2023-07-16T07:52:57;115.18;;;107.65;;
16308;SDS011;8263;48.880;9.276;2023-07-16T07:55:23;117.10;;;109.30;;
16308;SDS011;8263;48.880;9.276;2023-07-16T07:57:50;114.65;;;107.15;;
16308;SDS011;8263;48.880;9.276;2023-07-16T08:00:16;113.43;;;105.93;;
16308;SDS011;8263;48.880;9.276;2023-07-16T08:02:43;117.13;;;109.43;;
16308;SDS011;8263;48.880;9.276;2023-07-16T08:05:11;115.78;;;107.93;;
16308;SDS011;8263;48.880;9.276;2023-07-16T08:07:37;116.65;;;108.75;;
16308;SDS011;8263;48.880;9.276;2023-07-16T08:10:04;116.05;;;108.20;;
16308;SDS011;8263;48.880;9.276;2023-07-16T08:12:31;115.25;;;107.65;;
16308;SDS011;8263;48.880;9.276;2023-07-16T08:14:57;115.53;;;107.93;;
16308;SDS011;8263;48.880;9.276;2023-07-16T08:17:24;114.72;;;107.22;;
16308;SDS011;8263;48.880;9.276;2023-07-16T08:19:50;114.18;;;106.68;;
16308;SDS011;8263;48.880;9.276;2023-07-16T08:22:18;115.32;;;107.72;;
16308;SDS011;8263;48.880;9.276;2023-07-16T08:24:44;112.60;;;105.28;;
16308;SDS011;8263;48.880;9.276;2023-07-16T08:27:11;112.45;;;105.15;;
16308;SDS011;8263;48.880;9.276;2023-07-16T08:29:38;113.78;;;106.03;;
16308;SDS011;8263;48.880;9.276;2023-07-16T08:32:05;113.68;;;106.25;;
16308;SDS011;8263;48.880;9.276;2023-07-16T08:34:31;113.55;;;106.15;;
16308;SDS011;8263;48.880;9.276;2023-07-16T08:36:58;112.20;;;104.88;;
16308;SDS011;8263;48.880;9.276;2023-07-16T08:39:26;111.20;;;103.88;;
16308;SDS011;8263;48.880;9.276;2023-07-16T08:41:52;114.45;;;106.95;;
16308;SDS011;8263;48.880;9.276;2023-07-16T08:44:19;110.50;;;103.30;;
16308;SDS011;8263;48.880;9.276;2023-07-16T08:46:46;114.50;;;106.82;;
16308;SDS011;8263;48.880;9.276;2023-07-16T08:49:13;111.53;;;104.25;;
16308;SDS011;8263;48.880;9.276;2023-07-16T08:51:39;112.47;;;105.18;;
16308;SDS011;8263;48.880;9.276;2023-07-16T08:54:06;111.75;;;104.45;;
16308;SDS011;8263;48.880;9.276;2023-07-16T08:56:34;110.75;;;103.55;;
16308;SDS011;8263;48.880;9.276;2023-07-16T08:59:00;111.15;;;103.85;;
16308;SDS011;8263;48.880;9.276;2023-07-16T09:01:27;113.13;;;105.75;;
16308;SDS011;8263;48.880;9.276;2023-07-16T09:03:56;112.70;;;105.32;;
16308;SDS011;8263;48.880;9.276;2023-07-16T09:06:22;110.72;;;103.50;;
16308;SDS011;8263;48.880;9.276;2023-07-16T09:08:49;112.07;;;104.78;;
16308;SDS011;8263;48.880;9.276;2023-07-16T09:11:15;111.63;;;104.38;;
16308;SDS011;8263;48.880;9.276;2023-07-16T09:13:47;112.82;;;105.53;;
16308;SDS011;8263;48.880;9.276;2023-07-16T09:16:14;111.38;;;104.07;;
16308;SDS011;8263;48.880;9.276;2023-07-16T09:18:42;112.38;;;105.05;;
16308;SDS011;8263;48.880;9.276;2023-07-16T09:21:09;111.78;;;104.45;;
16308;SDS011;8263;48.880;9.276;2023-07-16T09:23:35;110.95;;;103.72;;
16308;SDS011;8263;48.880;9.276;2023-07-16T09:26:02;109.30;;;102.20;;
16308;SDS011;8263;48.880;9.276;2023-07-16T09:28:30;111.45;;;104.15;;
16308;SDS011;8263;48.880;9.276;2023-07-16T09:31:02;110.10;;;102.93;;
16308;SDS011;8263;48.880;9.276;2023-07-16T09:33:31;110.53;;;103.30;;
16308;SDS011;8263;48.880;9.276;2023-07-16T09:35:57;110.72;;;103.43;;
16308;SDS011;8263;48.880;9.276;2023-07-16T09:38:24;112.30;;;104.90;;
16308;SDS011;8263;48.880;9.276;2023-07-16T09:40:51;110.50;;;103.30;;
16308;SDS011;8263;48.880;9.276;2023-07-16T09:43:17;110.03;;;102.90;;
16308;SDS011;8263;48.880;9.276;2023-07-16T09:45:44;108.35;;;101.28;;
16308;SDS011;8263;48.880;9.276;2023-07-16T09:48:12;109.97;;;102.80;;
16308;SDS011;8263;48.880;9.276;2023-07-16T09:50:39;110.43;;;103.25;;
16308;SDS011;8263;48.880;9.276;2023-07-16T09:53:10;108.35;;;101.35;;
16308;SDS011;8263;48.880;9.276;2023-07-16T09:55:37;108.15;;;101.10;;
16308;SDS011;8263;48.880;9.276;2023-07-16T09:58:06;110.28;;;103.07;;
16308;SDS011;8263;48.880;9.276;2023-07-16T10:00:33;109.20;;;102.10;;
16308;SDS011;8263;48.880;9.276;2023-07-16T10:03:00;111.35;;;104.05;;
16308;SDS011;8263;48.880;9.276;2023-07-16T10:05:28;108.03;;;101.03;;
16308;SDS011;8263;48.880;9.276;2023-07-16T10:07:56;109.28;;;102.07;;
16308;SDS011;8263;48.880;9.276;2023-07-16T10:10:25;108.88;;;101.78;;
16308;SDS011;8263;48.880;9.276;2023-07-16T10:12:55;109.40;;;102.30;;
16308;SDS011;8263;48.880;9.276;2023-07-16T10:15:25;109.40;;;102.30;;
16308;SDS011;8263;48.880;9.276;2023-07-16T10:17:53;105.82;;;98.93;;
16308;SDS011;8263;48.880;9.276;2023-07-16T10:20:29;108.60;;;101.60;;
16308;SDS011;8263;48.880;9.276;2023-07-16T10:22:55;110.57;;;103.43;;
16308;SDS011;8263;48.880;9.276;2023-07-16T10:25:22;109.32;;;102.20;;
16308;SDS011;8263;48.880;9.276;2023-07-16T10:27:50;107.40;;;100.40;;
16308;SDS011;8263;48.880;9.276;2023-07-16T10:30:17;106.13;;;99.25;;
16308;SDS011;8263;48.880;9.276;2023-07-16T10:32:44;105.88;;;99.03;;
16308;SDS011;8263;48.880;9.276;2023-07-16T10:35:11;105.97;;;99.10;;
16308;SDS011;8263;48.880;9.276;2023-07-16T10:37:39;107.70;;;100.70;;
16308;SDS011;8263;48.880;9.276;2023-07-16T10:40:09;105.85;;;98.88;;
16308;SDS011;8263;48.880;9.276;2023-07-16T10:42:36;107.93;;;100.63;;
16308;SDS011;8263;48.880;9.276;2023-07-16T10:45:03;107.45;;;100.43;;
16308;SDS011;8263;48.880;9.276;2023-07-16T10:47:30;106.05;;;99.25;;
16308;SDS011;8263;48.880;9.276;2023-07-16T10:49:58;107.25;;;100.35;;
16308;SDS011;8263;48.880;9.276;2023-07-16T10:52:25;105.93;;;99.10;;
16308;SDS011;8263;48.880;9.276;2023-07-16T10:54:53;103.95;;;97.25;;
16308;SDS011;8263;48.880;9.276;2023-07-16T10:57:20;104.90;;;98.10;;
16308;SDS011;8263;48.880;9.276;2023-07-16T10:59:48;104.40;;;97.65;;
16308;SDS011;8263;48.880;9.276;2023-07-16T11:02:15;104.50;;;97.75;;
16308;SDS011;8263;48.880;9.276;2023-07-16T11:04:42;104.13;;;97.43;;
16308;SDS011;8263;48.880;9.276;2023-07-16T11:07:09;103.95;;;97.28;;
16308;SDS011;8263;48.880;9.276;2023-07-16T11:09:39;106.00;;;99.00;;
16308;SDS011;8263;48.880;9.276;2023-07-16T11:12:08;104.93;;;98.18;;
16308;SDS011;8263;48.880;9.276;2023-07-16T11:14:36;105.78;;;98.88;;
16308;SDS011;8263;48.880;9.276;2023-07-16T11:17:06;102.28;;;95.68;;
16308;SDS011;8263;48.880;9.276;2023-07-16T11:19:33;103.63;;;96.93;;
16308;SDS011;8263;48.880;9.276;2023-07-16T11:22:00;104.13;;;97.43;;
16308;SDS011;8263;48.880;9.276;2023-07-16T11:24:26;101.25;;;94.75;;
16308;SDS011;8263;48.880;9.276;2023-07-16T11:26:54;105.82;;;98.85;;
16308;SDS011;8263;48.880;9.276;2023-07-16T11:29:23;100.57;;;94.13;;
16308;SDS011;8263;48.880;9.276;2023-07-16T11:31:50;100.93;;;94.45;;
16308;SDS011;8263;48.880;9.276;2023-07-16T11:34:16;100.57;;;94.18;;
16308;SDS011;8263;48.880;9.276;2023-07-16T11:36:43;99.45;;;92.97;;
16308;SDS011;8263;48.880;9.276;2023-07-16T11:39:10;101.28;;;94.78;;
16308;SDS011;8263;48.880;9.276;2023-07-16T11:41:37;100.85;;;94.40;;
16308;SDS011;8263;48.880;9.276;2023-07-16T11:44:03;102.07;;;95.43;;
16308;SDS011;8263;48.880;9.276;2023-07-16T11:46:33;98.43;;;92.03;;
16308;SDS011;8263;48.880;9.276;2023-07-16T11:49:00;98.80;;;92.50;;
16308;SDS011;8263;48.880;9.276;2023-07-16T11:51:27;98.15;;;91.85;;
16308;SDS011;8263;48.880;9.276;2023-07-16T11:53:55;98.22;;;91.95;;
16308;SDS011;8263;48.880;9.276;2023-07-16T11:56:21;97.88;;;91.57;;
16308;SDS011;8263;48.880;9.276;2023-07-16T11:58:48;98.68;;;92.38;;
16308;SDS011;8263;48.880;9.276;2023-07-16T12:01:15;98.10;;;91.50;;
16308;SDS011;8263;48.880;9.276;2023-07-16T12:03:43;98.07;;;91.85;;
16308;SDS011;8263;48.880;9.276;2023-07-16T12:06:09;95.28;;;89.13;;
16308;SDS011;8263;48.880;9.276;2023-07-16T12:08:37;97.60;;;91.32;;
16308;SDS011;8263;48.880;9.276;2023-07-16T12:11:06;97.68;;;91.40;;
16308;SDS011;8263;48.880;9.276;2023-07-16T12:13:32;96.13;;;89.80;;
16308;SDS011;8263;48.880;9.276;2023-07-16T12:15:59;98.53;;;92.13;;
16308;SDS011;8263;48.880;9.276;2023-07-16T12:18:26;96.75;;;90.63;;
16308;SDS011;8263;48.880;9.276;2023-07-16T12:20:54;96.80;;;90.60;;
16308;SDS011;8263;48.880;9.276;2023-07-16T12:23:20;99.38;;;92.85;;
16308;SDS011;8263;48.880;9.276;2023-07-16T12:25:47;99.65;;;93.25;;
16308;SDS011;8263;48.880;9.276;2023-07-16T12:28:14;94.75;;;88.70;;
16308;SDS011;8263;48.880;9.276;2023-07-16T12:30:40;98.20;;;91.85;;
16308;SDS011;8263;48.880;9.276;2023-07-16T12:33:07;94.95;;;88.88;;
16308;SDS011;8263;48.880;9.276;2023-07-16T12:35:33;95.93;;;89.75;;
16308;SDS011;8263;48.880;9.276;2023-07-16T12:38:01;96.72;;;90.25;;
16308;SDS011;8263;48.880;9.276;2023-07-16T12:40:29;96.50;;;90.20;;
16308;SDS011;8263;48.880;9.276;2023-07-16T12:42:55;97.10;;;90.90;;
16308;SDS011;8263;48.880;9.276;2023-07-16T12:45:21;95.78;;;89.57;;
16308;SDS011;8263;48.880;9.276;2023-07-16T12:47:48;94.25;;;88.25;;
16308;SDS011;8263;48.880;9.276;2023-07-16T12:50:15;93.95;;;87.97;;
16308;SDS011;8263;48.880;9.276;2023-07-16T12:52:42;95.82;;;89.72;;
16308;SDS011;8263;48.880;9.276;2023-07-16T12:55:09;93.63;;;87.70;;
16308;SDS011;8263;48.880;9.276;2023-07-16T12:57:36;94.45;;;88.45;;
16308;SDS011;8263;48.880;9.276;2023-07-16T13:00:02;96.45;;;90.35;;
16308;SDS011;8263;48.880;9.276;2023-07-16T13:02:30;95.78;;;89.68;;
16308;SDS011;8263;48.880;9.276;2023-07-16T13:04:57;93.82;;;87.93;;
16308;SDS011;8263;48.880;9.276;2023-07-16T13:07:23;91.97;;;86.18;;
16308;SDS011;8263;48.880;9.276;2023-07-16T13:09:49;94.35;;;88.25;;
16308;SDS011;8263;48.880;9.276;2023-07-16T13:12:17;91.45;;;85.65;;
16308;SDS011;8263;48.880;9.276;2023-07-16T13:14:44;93.72;;;87.80;;
16308;SDS011;8263;48.880;9.276;2023-07-16T13:17:10;92.43;;;86.43;;
16308;SDS011;8263;48.880;9.276;2023-07-16T13:19:36;94.63;;;88.63;;
16308;SDS011;8263;48.880;9.276;2023-07-16T13:22:03;91.03;;;85.22;;
16308;SDS011;8263;48.880;9.276;2023-07-16T13:24:30;91.82;;;86.03;;
16308;SDS011;8263;48.880;9.276;2023-07-16T13:26:56;91.50;;;85.70;;
16308;SDS011;8263;48.880;9.276;2023-07-16T13:29:24;90.25;;;84.45;;
16308;SDS011;8263;48.880;9.276;2023-07-16T13:31:51;89.07;;;83.45;;
16308;SDS011;8263;48.880;9.276;2023-07-16T13:34:17;87.88;;;82.28;;
16308;SDS011;8263;48.880;9.276;2023-07-16T13:36:43;91.20;;;85.43;;
16308;SDS011;8263;48.880;9.276;2023-07-16T13:39:10;86.43;;;80.95;;
16308;SDS011;8263;48.880;9.276;2023-07-16T13:41:38;90.13;;;84.35;;
16308;SDS011;8263;48.880;9.276;2023-07-16T13:44:05;88.75;;;83.15;;
16308;SDS011;8263;48.880;9.276;2023-07-16T13:46:33;88.43;;;82.75;;
16308;SDS011;8263;48.880;9.276;2023-07-16T13:48:59;91.80;;;86.00;;
16308;SDS011;8263;48.880;9.276;2023-07-16T13:51:26;88.30;;;82.60;;
16308;SDS011;8263;48.880;9.276;2023-07-16T13:53:52;86.82;;;81.25;;
16308;SDS011;8263;48.880;9.276;2023-07-16T13:56:19;89.88;;;84.20;;
16308;SDS011;8263;48.880;9.276;2023-07-16T13:58:45;87.82;;;82.22;;
16308;SDS011;8263;48.880;9.276;2023-07-16T14:01:12;88.93;;;83.28;;
16308;SDS011;8263;48.880;9.276;2023-07-16T14:03:40;89.80;;;84.10;;
16308;SDS011;8263;48.880;9.276;2023-07-16T14:06:07;88.10;;;82.45;;
16308;SDS011;8263;48.880;9.276;2023-07-16T14:08:33;91.03;;;85.22;;
16308;SDS011;8263;48.880;9.276;2023-07-16T14:11:01;87.60;;;82.07;;
16308;SDS011;8263;48.880;9.276;2023-07-16T14:13:27;89.13;;;83.53;;
16308;SDS011;8263;48.880;9.276;2023-07-16T14:15:54;89.95;;;84.25;;